Time;durP1;ratioP1;P1;durP2;ratioP2;P2;SDS_P1;SDS_P2;PMS_P1;PMS_P2;Temp;Humidity;BMP_temperature;BMP_pressure;BME280_temperature;BME280_humidity;BME280_pressure;Samples;Min_cycle;Max_cycle;Signal;HPM_P1;HPM_P2
2023/06/13 00:00:44;;;;;;;9.80;2.30;;;;;;;14.28;60.98;99429.04;107612;1254;60368;-40
2023/06/13 00:03:13;;;;;;;6.60;2.10;;;;;;;14.25;60.91;99430.66;107760;1255;73807;-40
2023/06/13 00:05:45;;;;;;;5.00;1.70;;;;;;;14.22;61.11;99431.05;107691;1253;66600;-40
2023/06/13 00:08:21;;;;;;;5.10;1.90;;;;;;;14.20;61.04;99430.94;107602;1257;72627;-40
2023/06/13 00:10:48;;;;;;;8.40;2.80;;;;;;;14.16;61.07;99423.84;107628;1257;60417;-40
2023/06/13 00:13:17;;;;;;;6.00;2.30;;;;;;;14.13;60.99;99421.10;107691;1253;60425;-40
2023/06/13 00:15:56;;;;;;;6.20;2.20;;;;;;;14.10;61.13;99419.82;107739;1255;73838;-40
2023/06/13 00:18:24;;;;;;;7.60;2.10;;;;;;;14.12;61.13;99417.73;107707;1256;66367;-40
2023/06/13 00:20:54;;;;;;;7.30;2.50;;;;;;;14.16;61.32;99418.08;107619;1253;71415;-40
2023/06/13 00:23:22;;;;;;;3.70;2.10;;;;;;;14.19;61.35;99415.98;107598;1254;60425;-40
2023/06/13 00:25:50;;;;;;;6.30;2.30;;;;;;;14.21;61.18;99409.07;107720;1251;61021;-40
2023/06/13 00:28:18;;;;;;;9.70;2.50;;;;;;;14.23;61.21;99410.08;107636;1253;72348;-40
2023/06/13 00:30:46;;;;;;;5.80;2.20;;;;;;;14.25;61.14;99410.48;107637;1257;65776;-40
2023/06/13 00:33:17;;;;;;;5.90;2.30;;;;;;;14.26;60.54;99416.10;107724;1253;72740;-39
2023/06/13 00:35:46;;;;;;;5.30;2.30;;;;;;;14.26;60.67;99414.55;107738;1254;60165;-40
2023/06/13 00:38:15;;;;;;;7.00;2.30;;;;;;;14.27;60.54;99416.56;107732;1255;59583;-40
2023/06/13 00:40:42;;;;;;;5.90;2.20;;;;;;;14.28;60.72;99416.73;107649;1257;73877;-40
2023/06/13 00:43:12;;;;;;;3.90;2.30;;;;;;;14.27;60.54;99417.36;107399;1260;66662;-40
2023/06/13 00:45:39;;;;;;;5.30;2.00;;;;;;;14.26;60.54;99417.66;107634;1253;71793;-40
2023/06/13 00:48:08;;;;;;;7.70;2.70;;;;;;;14.26;60.69;99414.55;107628;1257;60415;-40
2023/06/13 00:50:44;;;;;;;4.00;2.00;;;;;;;14.25;60.84;99411.73;107522;1258;60411;-40
2023/06/13 00:53:16;;;;;;;3.50;2.10;;;;;;;14.24;61.04;99409.55;107637;1254;73846;-40
2023/06/13 00:55:45;;;;;;;3.70;2.00;;;;;;;14.24;61.08;99408.98;107700;1254;66480;-40
2023/06/13 00:58:13;;;;;;;4.60;2.20;;;;;;;14.27;60.37;99406.52;107650;1254;71977;-40
2023/06/13 01:00:43;;;;;;;5.70;2.30;;;;;;;14.30;60.55;99407.16;107603;1254;60445;-39
2023/06/13 01:03:15;;;;;;;2.90;1.80;;;;;;;14.30;60.44;99405.36;107652;1257;60276;-40
2023/06/13 01:05:43;;;;;;;5.40;2.20;;;;;;;14.31;60.44;99402.48;107628;1257;72786;-39
2023/06/13 01:08:14;;;;;;;4.50;2.40;;;;;;;14.33;60.67;99401.79;107585;1253;67678;-39
2023/06/13 01:10:41;;;;;;;2.80;2.10;;;;;;;14.32;60.81;99397.51;107571;1256;72951;-39
2023/06/13 01:13:18;;;;;;;11.80;2.40;;;;;;;14.31;60.35;99393.84;107686;1254;60421;-39
2023/06/13 01:15:53;;;;;;;7.30;2.20;;;;;;;14.29;60.35;99394.21;107678;1254;60322;-40
2023/06/13 01:18:22;;;;;;;5.40;2.40;;;;;;;14.25;60.49;99390.15;107717;1251;73866;-39
2023/06/13 01:20:56;;;;;;;5.40;2.40;;;;;;;14.21;60.68;99393.95;107385;1256;66615;-39
2023/06/13 01:23:38;;;;;;;6.10;2.20;;;;;;;14.17;60.53;99391.67;107547;1254;72699;-39
2023/06/13 01:26:27;;;;;;;5.10;2.10;;;;;;;14.13;60.50;99388.23;107669;1256;60503;-43
2023/06/13 01:29:03;;;;;;;3.20;2.20;;;;;;;14.08;60.70;99382.12;107647;1256;61032;-41
2023/06/13 01:31:31;;;;;;;4.10;2.30;;;;;;;14.04;61.07;99386.06;107356;1254;71785;-39
2023/06/13 01:33:59;;;;;;;5.30;2.10;;;;;;;14.02;61.01;99384.52;107463;1251;67735;-40
2023/06/13 01:36:27;;;;;;;2.70;1.90;;;;;;;14.01;61.14;99386.29;107369;1253;71766;-39
2023/06/13 01:38:56;;;;;;;4.80;1.90;;;;;;;14.05;61.26;99389.98;107558;1252;60434;-40
2023/06/13 01:41:23;;;;;;;4.60;2.10;;;;;;;14.09;61.48;99391.23;107494;1252;60559;-39
2023/06/13 01:43:51;;;;;;;5.20;2.10;;;;;;;14.12;61.31;99390.94;107557;1256;72541;-39
2023/06/13 01:46:29;;;;;;;2.90;2.10;;;;;;;14.13;61.00;99390.16;107520;1253;66291;-39
2023/06/13 01:49:23;;;;;;;3.00;1.90;;;;;;;14.16;60.82;99389.64;107411;1259;71081;-40
2023/06/13 01:52:40;;;;;;;3.50;2.20;;;;;;;14.17;61.05;99388.79;107589;1257;60412;-42
2023/06/13 01:55:10;;;;;;;6.70;2.60;;;;;;;14.15;60.77;99385.11;107560;1254;60518;-39
2023/06/13 01:57:41;;;;;;;5.40;2.10;;;;;;;14.11;60.87;99382.83;107625;1252;72571;-40
2023/06/13 02:00:09;;;;;;;7.60;2.60;;;;;;;14.10;61.23;99381.04;107529;1256;67603;-40
2023/06/13 02:02:43;;;;;;;5.30;2.30;;;;;;;14.08;61.37;99380.48;107561;1256;71133;-40
2023/06/13 02:05:11;;;;;;;5.20;2.40;;;;;;;14.06;61.58;99384.92;107577;1256;60454;-40
2023/06/13 02:07:40;;;;;;;6.30;2.20;;;;;;;14.05;61.18;99384.60;107377;1258;60309;-40
2023/06/13 02:10:09;;;;;;;7.50;2.30;;;;;;;14.01;60.90;99390.58;107566;1251;73822;-40
2023/06/13 02:12:38;;;;;;;3.40;2.20;;;;;;;13.98;61.05;99391.19;107565;1254;67121;-40
2023/06/13 02:15:08;;;;;;;5.30;2.30;;;;;;;13.96;61.28;99387.66;107574;1254;72758;-40
2023/06/13 02:17:36;;;;;;;3.60;2.20;;;;;;;13.96;60.96;99389.22;107456;1257;60431;-40
2023/06/13 02:20:05;;;;;;;8.10;2.20;;;;;;;13.99;61.11;99391.57;107595;1252;60531;-39
2023/06/13 02:22:33;;;;;;;8.10;2.30;;;;;;;14.00;61.23;99390.57;107594;1255;74389;-39
2023/06/13 02:25:03;;;;;;;4.60;2.00;;;;;;;14.01;61.21;99393.06;107544;1255;68161;-39
2023/06/13 02:27:30;;;;;;;4.10;2.30;;;;;;;14.02;61.40;99391.75;107428;1254;72813;-39
2023/06/13 02:29:58;;;;;;;5.50;2.20;;;;;;;14.03;61.54;99395.27;107374;1253;60565;-39
2023/06/13 02:32:29;;;;;;;3.30;2.30;;;;;;;14.04;61.31;99397.05;107547;1257;60284;-39
2023/06/13 02:34:57;;;;;;;5.50;2.40;;;;;;;14.02;60.94;99398.61;107424;1255;72577;-39
2023/06/13 02:37:24;;;;;;;7.70;2.30;;;;;;;14.01;60.98;99398.89;107561;1256;67608;-39
2023/06/13 02:39:52;;;;;;;3.40;1.90;;;;;;;13.98;60.80;99396.32;107563;1256;72730;-39
2023/06/13 02:42:20;;;;;;;7.30;2.40;;;;;;;13.96;60.57;99395.92;107577;1252;60363;-39
2023/06/13 02:44:47;;;;;;;2.70;2.10;;;;;;;13.93;60.77;99396.54;107585;1254;60352;-38
2023/06/13 02:47:16;;;;;;;3.30;2.50;;;;;;;13.92;61.06;99398.85;107721;1252;73757;-39
2023/06/13 02:49:43;;;;;;;5.00;2.00;;;;;;;13.91;61.03;99397.14;107483;1255;66951;-39
2023/06/13 02:52:11;;;;;;;4.60;2.10;;;;;;;13.94;60.82;99394.50;107615;1256;72672;-39
2023/06/13 02:54:38;;;;;;;7.00;2.30;;;;;;;13.99;61.01;99392.04;107353;1254;60211;-39
2023/06/13 02:57:07;;;;;;;5.10;2.40;;;;;;;14.02;60.72;99388.40;107639;1255;60051;-39
2023/06/13 02:59:36;;;;;;;4.70;2.00;;;;;;;14.04;60.54;99390.75;107676;1253;72624;-39
2023/06/13 03:02:04;;;;;;;5.50;2.10;;;;;;;14.04;60.68;99389.27;107466;1257;68387;-38
2023/06/13 03:04:32;;;;;;;6.10;2.40;;;;;;;14.05;60.52;99391.30;107360;1259;72674;-39
2023/06/13 03:07:01;;;;;;;5.00;2.30;;;;;;;14.05;60.59;99390.29;107408;1255;60460;-39
2023/06/13 03:09:29;;;;;;;5.00;2.30;;;;;;;14.08;60.75;99391.63;107570;1257;60961;-39
2023/06/13 03:11:56;;;;;;;4.40;2.20;;;;;;;14.10;60.59;99393.89;107444;1251;73822;-39
2023/06/13 03:14:24;;;;;;;3.10;2.20;;;;;;;14.10;60.45;99391.08;107638;1254;66618;-39
2023/06/13 03:16:57;;;;;;;3.50;1.90;;;;;;;14.10;60.81;99393.49;107532;1254;72681;-39
2023/06/13 03:19:25;;;;;;;5.30;2.50;;;;;;;14.10;60.86;99397.63;107687;1254;60527;-40
2023/06/13 03:21:53;;;;;;;6.30;2.00;;;;;;;14.09;60.79;99392.02;107500;1253;60422;-40
2023/06/13 03:24:21;;;;;;;6.80;2.30;;;;;;;14.10;60.95;99396.23;107569;1257;73812;-40
2023/06/13 03:26:50;;;;;;;3.70;2.00;;;;;;;14.13;60.96;99395.30;107353;1254;67806;-40
2023/06/13 03:29:18;;;;;;;4.50;2.00;;;;;;;14.16;60.74;99396.50;107581;1254;72688;-40
2023/06/13 03:31:51;;;;;;;6.00;1.90;;;;;;;14.21;60.03;99400.17;107537;1253;60426;-41
2023/06/13 03:34:58;;;;;;;4.30;1.90;;;;;;;14.24;60.03;99400.96;107556;1257;60468;-39
2023/06/13 03:37:26;;;;;;;4.70;2.70;;;;;;;14.25;60.17;99405.27;107715;1251;73025;-39
2023/06/13 03:39:54;;;;;;;7.30;2.50;;;;;;;14.29;59.76;99404.74;107627;1251;67371;-39
2023/06/13 03:42:22;;;;;;;4.60;2.30;;;;;;;14.30;59.32;99401.09;107462;1253;71193;-39
2023/06/13 03:44:50;;;;;;;3.60;2.10;;;;;;;14.31;59.58;99403.19;107554;1254;60396;-39
2023/06/13 03:47:18;;;;;;;4.00;2.50;;;;;;;14.30;59.38;99404.20;107557;1254;59659;-39
2023/06/13 03:49:46;;;;;;;3.90;2.20;;;;;;;14.29;58.94;99403.80;107371;1254;72568;-38
2023/06/13 03:52:13;;;;;;;6.70;2.30;;;;;;;14.30;59.50;99405.44;107593;1254;66969;-39
2023/06/13 03:54:41;;;;;;;3.40;2.30;;;;;;;14.29;59.09;99406.67;107262;1254;72726;-39
2023/06/13 03:57:10;;;;;;;5.60;2.30;;;;;;;14.29;59.40;99406.21;107417;1254;60823;-39
2023/06/13 03:59:38;;;;;;;5.00;2.20;;;;;;;14.30;59.50;99408.16;107455;1257;60287;-39
2023/06/13 04:02:06;;;;;;;5.40;2.30;;;;;;;14.30;59.44;99409.41;107461;1254;72636;-39
2023/06/13 04:04:34;;;;;;;5.20;2.30;;;;;;;14.29;59.27;99410.65;107359;1251;66761;-40
2023/06/13 04:07:05;;;;;;;6.00;2.40;;;;;;;14.29;59.36;99411.13;109233;1254;72687;-40
2023/06/13 04:09:33;;;;;;;5.00;2.00;;;;;;;14.31;59.20;99411.06;107629;1254;60392;-40
2023/06/13 04:12:01;;;;;;;5.50;2.40;;;;;;;14.32;58.82;99408.41;107708;1251;59234;-40
2023/06/13 04:14:29;;;;;;;5.00;2.50;;;;;;;14.33;58.94;99405.61;107483;1253;73062;-39
2023/06/13 04:17:00;;;;;;;7.70;2.80;;;;;;;14.33;59.07;99408.89;107645;1251;68059;-39
2023/06/13 04:19:27;;;;;;;6.90;2.60;;;;;;;14.32;59.13;99409.12;107629;1254;71191;-39
2023/06/13 04:21:55;;;;;;;4.80;2.10;;;;;;;14.30;59.03;99408.71;107495;1251;60400;-39
2023/06/13 04:24:24;;;;;;;5.40;2.40;;;;;;;14.31;58.94;99405.60;107699;1251;60337;-39
2023/06/13 04:26:52;;;;;;;4.70;2.30;;;;;;;14.31;59.09;99402.09;107641;1251;72914;-39
2023/06/13 04:29:20;;;;;;;4.50;2.00;;;;;;;14.33;59.45;99401.80;107672;1252;67943;-39
2023/06/13 04:31:50;;;;;;;5.80;1.90;;;;;;;14.41;59.47;99407.69;107391;1254;72693;-40
2023/06/13 04:34:18;;;;;;;6.70;2.30;;;;;;;14.51;59.47;99405.55;107676;1254;60244;-40
2023/06/13 04:36:47;;;;;;;6.40;2.30;;;;;;;14.58;59.38;99400.20;107679;1253;59217;-40
2023/06/13 04:39:15;;;;;;;7.80;2.30;;;;;;;14.65;59.25;99406.00;107626;1253;73819;-40
2023/06/13 04:41:48;;;;;;;4.00;2.60;;;;;;;14.67;58.38;99403.12;107441;1253;66455;-41
2023/06/13 04:44:16;;;;;;;4.30;2.30;;;;;;;14.67;58.22;99403.66;107439;1254;71466;-39
2023/06/13 04:46:43;;;;;;;4.60;1.90;;;;;;;14.67;58.06;99400.93;107503;1253;60383;-40
2023/06/13 04:49:11;;;;;;;4.50;2.30;;;;;;;14.68;57.89;99402.73;107509;1256;60310;-39
2023/06/13 04:51:47;;;;;;;5.90;2.40;;;;;;;14.67;57.82;99402.02;107587;1254;74341;-41
2023/06/13 04:54:16;;;;;;;9.30;2.50;;;;;;;14.66;57.99;99397.03;107534;1254;66706;-40
2023/06/13 04:56:44;;;;;;;5.10;2.50;;;;;;;14.67;58.08;99395.63;107482;1254;71924;-40
2023/06/13 04:59:12;;;;;;;5.60;2.90;;;;;;;14.68;57.93;99396.19;107471;1254;60402;-41
2023/06/13 05:01:40;;;;;;;5.60;2.40;;;;;;;14.69;58.04;99395.72;107542;1254;60587;-40
2023/06/13 05:04:09;;;;;;;5.10;2.50;;;;;;;14.72;58.21;99395.33;107649;1252;73155;-39
2023/06/13 05:06:38;;;;;;;5.40;2.50;;;;;;;14.74;58.28;99397.98;107669;1255;67584;-40
2023/06/13 05:09:07;;;;;;;7.30;2.50;;;;;;;14.77;57.97;99396.13;107360;1258;72750;-39
2023/06/13 05:11:35;;;;;;;3.90;2.50;;;;;;;14.79;57.74;99390.91;107506;1253;60164;-40
2023/06/13 05:14:06;;;;;;;3.30;2.60;;;;;;;14.78;57.34;99389.27;107429;1251;61998;-39
2023/06/13 05:16:34;;;;;;;8.90;2.90;;;;;;;14.77;57.95;99392.84;107606;1251;73853;-39
2023/06/13 05:19:05;;;;;;;8.10;2.70;;;;;;;14.79;58.07;99392.15;107499;1253;67872;-39
2023/06/13 05:21:33;;;;;;;8.40;3.10;;;;;;;14.82;58.22;99393.34;107320;1254;274601;-39
2023/06/13 05:25:03;;;;;;;7.10;2.70;;;;;;;14.92;57.75;99391.00;104101;1291;600795;-40
2023/06/13 05:27:31;;;;;;;7.10;2.80;;;;;;;14.95;57.44;99392.04;106613;1267;60084;-39
2023/06/13 05:29:58;;;;;;;5.50;3.00;;;;;;;14.98;57.18;99394.15;106608;1266;60077;-40
2023/06/13 05:32:26;;;;;;;5.60;2.70;;;;;;;14.98;56.90;99397.50;106611;1266;72362;-40
2023/06/13 05:34:53;;;;;;;5.00;2.40;;;;;;;14.98;57.18;99395.93;106612;1268;66968;-39
2023/06/13 05:37:21;;;;;;;6.50;3.00;;;;;;;15.01;57.33;99398.29;106489;1270;72663;-39
2023/06/13 05:39:49;;;;;;;4.50;2.70;;;;;;;15.05;57.15;99397.05;106903;1257;230065;-39
2023/06/13 05:42:16;;;;;;;4.70;3.10;;;;;;;15.07;56.87;99397.12;107194;1262;59275;-39
2023/06/13 05:44:44;;;;;;;4.40;2.80;;;;;;;15.07;56.75;99397.43;107112;1257;72255;-39
2023/06/13 05:47:12;;;;;;;5.30;3.40;;;;;;;15.06;56.67;99395.33;107162;1256;67498;-39
2023/06/13 05:49:39;;;;;;;5.50;3.10;;;;;;;15.06;56.67;99393.69;107057;1257;72688;-39
2023/06/13 05:52:07;;;;;;;5.90;2.70;;;;;;;15.10;56.85;99397.59;107139;1257;59646;-39
2023/06/13 05:54:35;;;;;;;7.70;3.20;;;;;;;15.15;56.93;99400.41;107085;1257;59678;-39
2023/06/13 05:57:03;;;;;;;5.50;2.70;;;;;;;15.23;56.82;99402.13;107091;1257;72344;-39
2023/06/13 05:59:31;;;;;;;6.10;3.10;;;;;;;15.29;56.58;99396.83;107049;1261;67915;-39
2023/06/13 06:01:59;;;;;;;13.40;3.70;;;;;;;15.33;56.19;99393.55;107022;1257;73243;-39
2023/06/13 06:04:27;;;;;;;4.90;3.40;;;;;;;15.36;56.13;99393.02;107023;1260;59320;-39
2023/06/13 06:06:55;;;;;;;5.00;3.20;;;;;;;15.40;56.17;99391.84;107188;1257;60130;-40
2023/06/13 06:09:22;;;;;;;6.20;3.20;;;;;;;15.47;56.39;99390.67;107270;1260;71835;-39
2023/06/13 06:11:52;;;;;;;3.90;2.80;;;;;;;15.54;55.98;99390.44;107194;1257;67614;-39
2023/06/13 06:14:20;;;;;;;6.50;3.00;;;;;;;15.60;56.20;99389.13;107135;1257;72719;-38
2023/06/13 06:16:50;;;;;;;4.70;3.10;;;;;;;15.68;55.69;99388.71;107103;1257;60322;-39
2023/06/13 06:19:18;;;;;;;4.80;3.50;;;;;;;15.74;55.31;99387.62;107112;1257;60633;-39
2023/06/13 06:21:45;;;;;;;5.10;3.10;;;;;;;15.78;55.16;99388.70;107128;1257;73041;-39
2023/06/13 06:24:13;;;;;;;7.60;3.80;;;;;;;15.83;54.98;99384.09;107130;1257;67560;-39
2023/06/13 06:26:41;;;;;;;5.50;3.00;;;;;;;15.87;54.81;99385.88;107150;1257;72732;-39
2023/06/13 06:29:08;;;;;;;6.90;3.70;;;;;;;15.91;54.75;99384.63;107170;1258;59516;-39
2023/06/13 06:31:36;;;;;;;7.10;3.70;;;;;;;15.96;54.74;99382.27;107225;1260;59505;-39
2023/06/13 06:34:04;;;;;;;4.50;3.50;;;;;;;15.99;54.43;99383.98;107074;1257;73503;-39
2023/06/13 06:36:31;;;;;;;6.90;3.70;;;;;;;16.03;54.32;99383.65;107224;1257;67566;-39
2023/06/13 06:38:59;;;;;;;4.60;3.40;;;;;;;16.06;54.00;99382.00;107168;1260;71086;-39
2023/06/13 06:41:27;;;;;;;5.30;3.30;;;;;;;16.09;54.16;99382.30;107170;1257;60044;-39
2023/06/13 06:43:54;;;;;;;6.20;3.30;;;;;;;16.16;54.49;99376.58;107196;1257;60102;-39
2023/06/13 06:46:24;;;;;;;6.80;3.60;;;;;;;16.26;54.55;99374.91;107095;1257;73043;-39
2023/06/13 06:48:52;;;;;;;6.70;4.20;;;;;;;16.35;54.18;99377.61;107068;1259;68070;-39
2023/06/13 06:51:20;;;;;;;4.00;3.50;;;;;;;16.44;53.80;99377.48;107079;1257;72800;-39
2023/06/13 06:53:52;;;;;;;4.70;3.70;;;;;;;16.53;53.48;99370.48;107213;1260;60056;-39
2023/06/13 06:56:19;;;;;;;7.90;4.10;;;;;;;16.62;53.58;99369.91;107222;1257;59991;-40
2023/06/13 06:58:48;;;;;;;4.40;3.80;;;;;;;16.72;53.56;99368.45;107060;1260;73059;-39
2023/06/13 07:01:18;;;;;;;7.10;4.00;;;;;;;16.82;53.45;99370.58;107197;1257;66599;-40
2023/06/13 07:03:50;;;;;;;5.00;3.60;;;;;;;16.95;53.22;99373.23;107195;1257;72781;-43
2023/06/13 07:06:19;;;;;;;5.90;3.50;;;;;;;17.07;52.84;99363.30;107076;1258;59631;-39
2023/06/13 07:08:47;;;;;;;4.40;3.20;;;;;;;17.18;52.51;99354.52;107064;1257;60009;-39
2023/06/13 07:11:15;;;;;;;6.00;3.60;;;;;;;17.29;53.00;99352.08;107034;1257;73098;-39
2023/06/13 07:13:42;;;;;;;5.90;3.70;;;;;;;17.41;53.15;99353.63;107087;1257;66370;-39
2023/06/13 07:16:10;;;;;;;4.10;3.20;;;;;;;17.51;52.57;99361.67;107103;1259;71527;-39
2023/06/13 07:18:50;;;;;;;4.80;3.50;;;;;;;17.60;51.99;99362.45;106959;1259;59609;-40
2023/06/13 07:21:18;;;;;;;5.70;3.10;;;;;;;17.66;51.47;99358.66;107052;1262;60071;-40
2023/06/13 07:23:46;;;;;;;7.30;3.90;;;;;;;17.76;51.90;99360.06;107027;1257;72399;-40
2023/06/13 07:26:33;;;;;;;5.80;3.30;;;;;;;17.87;51.09;99360.80;107105;1258;66680;-40
2023/06/13 07:29:00;;;;;;;5.80;3.10;;;;;;;17.88;51.64;99358.05;107226;1257;73167;-40
2023/06/13 07:31:29;;;;;;;8.20;3.50;;;;;;;17.94;51.92;99358.85;107073;1257;60182;-39
2023/06/13 07:33:57;;;;;;;5.30;3.20;;;;;;;18.02;51.35;99355.86;107164;1257;59477;-40
2023/06/13 07:36:27;;;;;;;11.60;3.40;;;;;;;18.07;50.88;99358.47;107171;1257;73149;-40
2023/06/13 07:38:54;;;;;;;10.30;3.40;;;;;;;18.11;51.10;99360.77;106976;1257;67605;-40
2023/06/13 07:41:34;;;;;;;7.50;3.70;;;;;;;18.18;51.25;99360.45;107067;1260;70619;-40
2023/06/13 07:44:02;;;;;;;4.30;3.50;;;;;;;18.27;50.85;99359.25;106931;1260;60259;-40
2023/06/13 07:46:30;;;;;;;4.20;3.60;;;;;;;18.33;50.50;99356.82;107093;1258;60067;-40
2023/06/13 07:48:58;;;;;;;5.50;3.50;;;;;;;18.43;49.82;99355.28;107103;1257;73420;-40
2023/06/13 07:51:25;;;;;;;5.60;3.60;;;;;;;18.50;49.44;99353.63;107016;1261;67586;-40
2023/06/13 07:53:53;;;;;;;5.70;3.80;;;;;;;18.52;49.60;99348.18;107070;1257;71358;-40
2023/06/13 07:56:21;;;;;;;8.50;3.90;;;;;;;18.55;49.56;99346.44;107100;1260;59593;-40
2023/06/13 07:58:48;;;;;;;4.80;3.40;;;;;;;18.58;49.09;99349.07;107156;1257;59330;-40
2023/06/13 08:01:16;;;;;;;4.90;3.80;;;;;;;18.65;49.22;99349.92;107094;1257;71765;-40
2023/06/13 08:03:45;;;;;;;8.80;3.70;;;;;;;18.78;48.91;99351.30;106945;1257;68056;-40
2023/06/13 08:06:13;;;;;;;6.70;3.70;;;;;;;18.89;48.56;99354.67;107068;1256;72803;-40
2023/06/13 08:08:41;;;;;;;6.00;3.80;;;;;;;18.94;48.07;99355.38;106986;1262;62547;-40
2023/06/13 08:11:09;;;;;;;5.80;3.20;;;;;;;18.94;48.20;99353.41;107006;1262;59945;-40
2023/06/13 08:13:37;;;;;;;5.60;3.80;;;;;;;19.01;48.23;99355.35;107021;1257;73160;-40
2023/06/13 08:16:05;;;;;;;5.10;3.70;;;;;;;19.09;48.17;99352.55;107065;1257;66313;-40
2023/06/13 08:18:33;;;;;;;13.60;4.70;;;;;;;19.12;48.08;99346.86;107208;1257;72717;-40
2023/06/13 08:21:01;;;;;;;5.40;4.10;;;;;;;19.17;48.03;99346.61;107193;1257;59605;-40
2023/06/13 08:23:29;;;;;;;4.20;3.60;;;;;;;19.19;47.72;99350.83;107069;1257;60009;-40
2023/06/13 08:25:57;;;;;;;6.30;4.00;;;;;;;19.21;48.64;99346.33;107057;1257;73090;-40
2023/06/13 08:28:25;;;;;;;6.90;4.40;;;;;;;19.23;48.61;99344.86;107111;1257;67220;-40
2023/06/13 08:30:53;;;;;;;6.90;4.20;;;;;;;19.26;47.95;99346.63;107219;1257;72722;-40
2023/06/13 08:33:36;;;;;;;12.00;3.80;;;;;;;19.24;47.94;99344.55;107204;1259;60065;-40
2023/06/13 08:36:04;;;;;;;6.10;4.00;;;;;;;19.25;47.73;99342.19;107209;1261;60146;-39
2023/06/13 08:38:49;;;;;;;7.30;4.40;;;;;;;19.29;47.67;99335.98;107163;1257;73112;-40
2023/06/13 08:41:18;;;;;;;5.60;3.80;;;;;;;19.32;47.62;99339.62;107105;1260;67597;-40
2023/06/13 08:43:46;;;;;;;7.70;4.60;;;;;;;19.36;47.41;99342.16;107138;1257;72795;-40
2023/06/13 08:46:14;;;;;;;7.60;4.00;;;;;;;19.38;47.49;99343.69;107176;1257;59621;-40
2023/06/13 08:48:42;;;;;;;6.80;4.80;;;;;;;19.38;47.89;99344.55;106996;1257;60433;-40
2023/06/13 08:51:16;;;;;;;7.10;4.10;;;;;;;19.42;47.78;99342.98;107120;1257;73050;-40
2023/06/13 08:53:51;;;;;;;6.70;4.30;;;;;;;19.44;47.67;99346.03;107097;1257;66379;-39
2023/06/13 08:56:21;;;;;;;8.30;4.10;;;;;;;19.48;48.20;99348.95;107204;1261;72681;-40
2023/06/13 08:58:56;;;;;;;7.00;4.10;;;;;;;19.54;47.58;99351.29;107148;1260;60129;-40
2023/06/13 09:01:25;;;;;;;6.30;4.30;;;;;;;19.59;47.10;99353.73;107240;1260;59532;-41
2023/06/13 09:03:54;;;;;;;6.80;4.40;;;;;;;19.58;47.39;99352.95;107217;1257;73148;-40
2023/06/13 09:06:23;;;;;;;8.90;4.20;;;;;;;19.58;47.16;99346.19;107178;1257;67968;-40
2023/06/13 09:08:55;;;;;;;9.80;4.40;;;;;;;19.59;47.25;99341.55;107207;1257;71374;-39
2023/06/13 09:11:22;;;;;;;6.60;4.10;;;;;;;19.62;47.41;99338.59;107189;1257;59493;-40
2023/06/13 09:13:50;;;;;;;11.50;4.60;;;;;;;19.67;47.23;99337.86;107021;1258;60187;-40
2023/06/13 09:16:18;;;;;;;7.60;4.20;;;;;;;19.77;46.82;99333.96;107048;1257;71855;-39
2023/06/13 09:18:45;;;;;;;5.20;4.00;;;;;;;19.89;46.74;99332.48;107121;1257;67891;-39
2023/06/13 09:21:13;;;;;;;5.60;4.40;;;;;;;20.03;46.27;99334.75;107188;1256;72674;-40
2023/06/13 09:23:41;;;;;;;5.30;4.00;;;;;;;20.11;46.06;99333.39;107166;1263;60084;-39
2023/06/13 09:26:10;;;;;;;4.30;3.80;;;;;;;20.14;46.63;99338.20;107058;1262;60046;-40
2023/06/13 09:28:42;;;;;;;4.80;4.10;;;;;;;20.15;46.76;99338.96;107003;1257;71857;-40
2023/06/13 09:31:10;;;;;;;5.10;3.80;;;;;;;20.18;46.15;99337.96;107180;1257;67572;-40
2023/06/13 09:33:38;;;;;;;8.00;4.00;;;;;;;20.21;46.21;99335.48;107096;1258;72716;-40
2023/06/13 09:36:07;;;;;;;7.30;3.80;;;;;;;20.28;46.54;99328.57;107182;1257;60534;-40
2023/06/13 09:38:35;;;;;;;4.00;3.60;;;;;;;20.32;45.80;99332.20;107230;1257;60477;-40
2023/06/13 09:41:04;;;;;;;5.70;3.90;;;;;;;20.31;45.99;99330.09;107256;1262;73808;-40
2023/06/13 09:43:31;;;;;;;7.40;4.30;;;;;;;20.36;46.47;99331.48;107134;1257;66607;-40
2023/06/13 09:46:00;;;;;;;5.50;3.90;;;;;;;20.45;46.08;99332.33;107198;1257;72666;-40
2023/06/13 09:48:27;;;;;;;4.90;3.40;;;;;;;20.54;45.84;99329.84;107078;1257;60468;-40
2023/06/13 09:50:55;;;;;;;5.50;3.60;;;;;;;20.62;45.49;99326.99;106946;1258;60309;-39
2023/06/13 09:53:25;;;;;;;5.50;3.30;;;;;;;20.73;45.49;99326.42;107093;1257;73859;-39
2023/06/13 09:55:53;;;;;;;6.00;3.80;;;;;;;20.83;45.30;99330.98;107087;1257;66437;-39
2023/06/13 09:58:20;;;;;;;4.10;3.30;;;;;;;20.84;45.31;99337.58;107154;1262;70850;-39
2023/06/13 10:01:00;;;;;;;4.00;3.30;;;;;;;20.82;45.23;99334.73;107020;1260;60125;-39
2023/06/13 10:03:28;;;;;;;4.60;3.30;;;;;;;20.83;45.41;99336.66;107021;1257;60556;-39
2023/06/13 10:06:00;;;;;;;4.50;3.30;;;;;;;20.81;44.56;99340.40;107143;1262;73892;-40
2023/06/13 10:08:31;;;;;;;3.90;2.80;;;;;;;20.73;44.74;99339.48;107199;1257;68632;-39
2023/06/13 10:10:59;;;;;;;;;;;;;;;20.66;44.37;99342.73;107178;1263;71410;-40
2023/06/13 10:13:29;;;;;;;4.60;3.40;;;;;;;20.51;44.73;99342.58;107113;1256;60414;-39
2023/06/13 10:15:58;;;;;;;3.50;3.00;;;;;;;20.39;44.64;99338.59;107052;1257;60343;-40
2023/06/13 10:18:30;;;;;;;5.90;3.40;;;;;;;20.34;45.07;99340.02;107163;1257;72896;-39
2023/06/13 10:21:16;;;;;;;6.80;3.20;;;;;;;20.35;45.49;99339.60;107317;1262;67737;-41
2023/06/13 10:23:46;;;;;;;3.60;2.90;;;;;;;20.37;45.39;99336.97;107041;1260;72814;-42
2023/06/13 10:26:43;;;;;;;3.40;2.80;;;;;;;20.36;45.18;99332.02;106872;1261;60456;-40
2023/06/13 10:29:28;;;;;;;3.10;2.80;;;;;;;20.35;45.69;99332.67;106811;1260;60572;-40
2023/06/13 10:32:08;;;;;;;4.40;2.90;;;;;;;20.34;45.35;99328.77;106917;1260;73915;-41
2023/06/13 10:34:36;;;;;;;;;;;;;;;20.29;44.97;99329.95;106870;1265;68266;-41
2023/06/13 10:37:42;;;;;;;4.90;2.80;;;;;;;20.13;45.08;99330.29;106946;1260;72679;-41
2023/06/13 10:40:34;;;;;;;7.40;2.80;;;;;;;20.00;46.13;99330.85;106872;1260;60184;-40
2023/06/13 10:43:37;;;;;;;7.30;3.10;;;;;;;19.96;46.14;99332.11;106871;1260;60435;-41
2023/06/13 10:46:06;;;;;;;5.60;2.90;;;;;;;19.89;45.98;99331.54;106831;1265;74319;-41
2023/06/13 10:48:36;;;;;;;6.70;2.60;;;;;;;19.81;46.18;99336.02;107013;1265;67087;-40
2023/06/13 10:51:04;;;;;;;6.40;3.20;;;;;;;19.79;46.32;99336.05;106879;1260;72844;-40
2023/06/13 10:53:33;;;;;;;5.30;2.60;;;;;;;19.76;46.29;99332.73;107000;1260;60488;-40
2023/06/13 10:56:01;;;;;;;5.60;2.80;;;;;;;19.72;46.18;99332.89;107187;1257;60194;-40
2023/06/13 10:58:29;;;;;;;5.90;2.90;;;;;;;19.71;46.33;99326.94;107282;1257;72639;-40
2023/06/13 11:00:57;;;;;;;5.00;2.80;;;;;;;19.70;46.51;99329.10;107274;1257;67772;-40
2023/06/13 11:03:29;;;;;;;4.10;2.70;;;;;;;19.69;46.69;99324.53;107020;1258;71485;-40
2023/06/13 11:05:57;;;;;;;5.40;3.00;;;;;;;19.69;46.59;99327.22;107189;1257;60418;-40
2023/06/13 11:08:25;;;;;;;5.40;3.20;;;;;;;19.68;46.51;99327.38;107072;1257;62973;-40
2023/06/13 11:10:52;;;;;;;5.50;2.70;;;;;;;19.66;46.67;99330.64;107194;1257;72664;-40
2023/06/13 11:13:28;;;;;;;5.70;2.90;;;;;;;19.68;47.81;99323.92;107202;1261;67575;-41
2023/06/13 11:15:56;;;;;;;8.10;3.50;;;;;;;19.74;47.24;99323.60;107031;1257;72699;-40
2023/06/13 11:18:25;;;;;;;7.00;2.60;;;;;;;19.74;46.54;99327.61;107257;1259;60424;-40
2023/06/13 11:20:54;;;;;;;5.20;3.50;;;;;;;19.75;47.40;99326.56;107255;1257;60315;-41
2023/06/13 11:23:41;;;;;;;6.80;3.10;;;;;;;19.74;46.63;99328.54;107242;1257;74389;-43
2023/06/13 11:26:08;;;;;;;8.90;3.50;;;;;;;19.74;46.78;99327.99;107086;1257;66628;-40
2023/06/13 11:28:36;;;;;;;3.50;2.70;;;;;;;19.70;47.07;99330.17;107049;1258;72676;-40
2023/06/13 11:31:05;;;;;;;6.20;2.90;;;;;;;19.72;47.41;99329.98;107150;1257;60444;-40
2023/06/13 11:33:36;;;;;;;8.00;3.20;;;;;;;19.73;46.61;99326.35;107202;1258;60693;-40
2023/06/13 11:36:04;;;;;;;9.10;3.30;;;;;;;19.69;46.45;99330.84;107152;1262;72609;-40
2023/06/13 11:38:44;;;;;;;8.30;3.10;;;;;;;19.65;46.74;99326.98;106960;1262;67662;-40